Time;durP1;ratioP1;P1;durP2;ratioP2;P2;SDS_P1;SDS_P2;PMS_P1;PMS_P2;Temp;Humidity;BMP_temperature;BMP_pressure;BME280_temperature;BME280_humidity;BME280_pressure;Samples;Min_cycle;Max_cycle;Signal;HPM_P1;HPM_P2
2023/10/21 00:02:07;;;;;;;26.40;15.85;;;;;;;;;;5098091;28;20027;-77
2023/10/21 00:04:32;;;;;;;29.08;17.38;;;;;;;;;;5102941;28;20031;-77
2023/10/21 00:06:58;;;;;;;27.60;17.55;;;;;;;;;;5097238;28;20015;-77
2023/10/21 00:09:23;;;;;;;35.55;17.42;;;;;;;;;;5073621;28;20043;-77
2023/10/21 00:11:48;;;;;;;31.00;16.92;;;;;;;;;;5098871;28;20023;-76
2023/10/21 00:14:14;;;;;;;31.40;17.27;;;;;;;;;;5094926;28;20093;-76
2023/10/21 00:16:39;;;;;;;23.55;16.10;;;;;;;;;;5086291;28;20036;-76
2023/10/21 00:19:04;;;;;;;21.83;14.50;;;;;;;;;;5098771;28;20028;-77
2023/10/21 00:21:30;;;;;;;43.53;16.77;;;;;;;;;;5092512;28;20028;-77
2023/10/21 00:23:55;;;;;;;26.15;17.42;;;;;;;;;;5093119;28;20019;-77
2023/10/21 00:26:20;;;;;;;29.85;17.38;;;;;;;;;;5092536;28;20036;-76
2023/10/21 00:28:51;;;;;;;48.53;19.08;;;;;;;;;;5081704;28;20645;-76
2023/10/21 00:31:16;;;;;;;31.02;15.70;;;;;;;;;;5097964;28;20028;-76
2023/10/21 00:33:41;;;;;;;32.28;17.00;;;;;;;;;;5095203;28;20398;-77
2023/10/21 00:36:06;;;;;;;53.88;19.10;;;;;;;;;;5092330;28;20024;-76
2023/10/21 00:38:32;;;;;;;39.15;17.67;;;;;;;;;;5076642;28;20111;-77
2023/10/21 00:40:57;;;;;;;42.53;18.40;;;;;;;;;;5077305;28;20049;-77
2023/10/21 00:43:34;;;;;;;45.15;17.92;;;;;;;;;;5078811;28;20077;-77
2023/10/21 00:46:01;;;;;;;51.22;17.13;;;;;;;;;;5103118;28;20121;-76
2023/10/21 00:48:26;;;;;;;36.92;16.08;;;;;;;;;;5097957;28;20045;-77
2023/10/21 00:50:52;;;;;;;33.65;16.95;;;;;;;;;;5099429;28;20084;-77
2023/10/21 00:53:17;;;;;;;34.65;16.90;;;;;;;;;;5096569;28;20476;-77
2023/10/21 00:55:42;;;;;;;21.80;14.88;;;;;;;;;;5100477;28;20036;-76
2023/10/21 00:58:07;;;;;;;70.53;17.60;;;;;;;;;;5101343;28;20048;-77
2023/10/21 01:00:34;;;;;;;60.70;17.88;;;;;;;;;;5072914;28;20059;-76
2023/10/21 01:03:00;;;;;;;28.25;14.63;;;;;;;;;;5075722;28;20034;-77
2023/10/21 01:05:25;;;;;;;53.95;17.75;;;;;;;;;;5093435;28;20107;-77
2023/10/21 01:07:50;;;;;;;63.38;16.55;;;;;;;;;;5098631;28;20024;-77
2023/10/21 01:10:15;;;;;;;34.75;15.15;;;;;;;;;;5077532;28;20031;-77
2023/10/21 01:12:41;;;;;;;46.25;15.40;;;;;;;;;;5079208;28;20548;-77
2023/10/21 01:15:07;;;;;;;26.50;14.50;;;;;;;;;;5083374;28;20024;-76
2023/10/21 01:17:32;;;;;;;29.52;15.02;;;;;;;;;;5080446;28;20028;-77
2023/10/21 01:19:59;;;;;;;51.88;16.40;;;;;;;;;;5081914;28;20076;-77
2023/10/21 01:22:25;;;;;;;33.67;14.77;;;;;;;;;;5096366;28;20035;-77
2023/10/21 01:24:50;;;;;;;38.58;14.88;;;;;;;;;;5098847;28;20427;-77
2023/10/21 01:27:16;;;;;;;24.52;12.80;;;;;;;;;;5103433;28;20020;-77
2023/10/21 01:29:41;;;;;;;36.58;16.48;;;;;;;;;;5098030;28;20380;-77
2023/10/21 01:32:06;;;;;;;29.08;12.73;;;;;;;;;;5098054;28;20606;-77
2023/10/21 01:34:31;;;;;;;56.55;14.88;;;;;;;;;;5090991;28;20572;-77
2023/10/21 01:36:57;;;;;;;54.63;16.63;;;;;;;;;;5103124;28;20433;-77
2023/10/21 01:39:22;;;;;;;104.35;15.75;;;;;;;;;;5098759;28;20028;-76
2023/10/21 01:41:47;;;;;;;67.30;14.48;;;;;;;;;;5085589;28;20051;-78
2023/10/21 01:44:12;;;;;;;40.35;13.30;;;;;;;;;;5079649;28;20059;-77
2023/10/21 01:46:38;;;;;;;60.88;14.45;;;;;;;;;;5077781;28;20431;-77
2023/10/21 01:49:03;;;;;;;37.00;12.60;;;;;;;;;;5081754;28;20491;-77
2023/10/21 01:51:28;;;;;;;30.52;12.20;;;;;;;;;;5097737;28;20046;-78
2023/10/21 01:53:53;;;;;;;56.08;14.10;;;;;;;;;;5099356;28;20524;-76
2023/10/21 01:56:19;;;;;;;64.80;14.90;;;;;;;;;;5103173;28;20032;-77
2023/10/21 01:58:44;;;;;;;44.65;13.68;;;;;;;;;;5078267;28;20027;-76
2023/10/21 02:01:11;;;;;;;50.03;13.98;;;;;;;;;;5074266;28;20050;-77
2023/10/21 02:03:36;;;;;;;30.05;12.48;;;;;;;;;;5081924;28;20024;-76
2023/10/21 02:06:06;;;;;;;37.70;12.25;;;;;;;;;;5081668;28;20053;-76
2023/10/21 02:08:31;;;;;;;65.40;13.55;;;;;;;;;;5080094;28;20028;-76
2023/10/21 02:10:56;;;;;;;28.52;12.48;;;;;;;;;;5084772;28;20028;-76
2023/10/21 02:13:21;;;;;;;50.03;13.77;;;;;;;;;;5092752;28;20035;-76
2023/10/21 02:15:47;;;;;;;49.40;15.35;;;;;;;;;;5081468;28;20506;-76
2023/10/21 02:18:12;;;;;;;31.17;12.38;;;;;;;;;;5097078;28;20508;-76
2023/10/21 02:20:37;;;;;;;38.42;12.68;;;;;;;;;;5099676;28;20023;-76
2023/10/21 02:23:03;;;;;;;51.80;13.02;;;;;;;;;;5102214;28;20039;-76
2023/10/21 02:25:29;;;;;;;19.05;11.25;;;;;;;;;;5101567;28;20066;-77
2023/10/21 02:27:54;;;;;;;27.30;11.70;;;;;;;;;;5080896;28;20454;-76
2023/10/21 02:30:19;;;;;;;37.90;12.32;;;;;;;;;;5094225;28;20063;-76
2023/10/21 02:32:45;;;;;;;30.95;12.27;;;;;;;;;;5100190;28;20026;-76
2023/10/21 02:35:11;;;;;;;27.13;10.10;;;;;;;;;;5100480;28;20085;-76
2023/10/21 02:37:36;;;;;;;24.85;12.07;;;;;;;;;;5092374;28;20027;-77
2023/10/21 02:40:03;;;;;;;23.42;11.10;;;;;;;;;;5097537;28;20089;-77
2023/10/21 02:42:28;;;;;;;27.08;10.60;;;;;;;;;;5091399;28;20416;-77
2023/10/21 02:44:54;;;;;;;46.63;12.73;;;;;;;;;;5075086;28;20028;-77
2023/10/21 02:47:19;;;;;;;37.28;11.90;;;;;;;;;;5077761;28;20032;-77
2023/10/21 02:49:44;;;;;;;32.80;12.20;;;;;;;;;;5084779;28;20028;-77
2023/10/21 02:52:09;;;;;;;20.88;13.18;;;;;;;;;;5101291;28;20544;-77
2023/10/21 02:54:35;;;;;;;41.40;11.75;;;;;;;;;;5078669;28;20025;-77
2023/10/21 02:57:00;;;;;;;27.50;11.75;;;;;;;;;;5080511;28;20016;-77
2023/10/21 02:59:26;;;;;;;25.40;11.88;;;;;;;;;;5077341;28;20028;-77
2023/10/21 03:01:52;;;;;;;23.90;11.38;;;;;;;;;;5084061;28;20042;-77
2023/10/21 03:04:17;;;;;;;17.30;11.55;;;;;;;;;;5100339;28;20036;-77
2023/10/21 03:06:42;;;;;;;28.70;12.15;;;;;;;;;;5097297;28;20016;-78
2023/10/21 03:09:07;;;;;;;31.30;12.63;;;;;;;;;;5097921;28;20110;-78
2023/10/21 03:11:34;;;;;;;33.75;12.82;;;;;;;;;;5074636;28;20044;-77
2023/10/21 03:13:59;;;;;;;13.25;10.50;;;;;;;;;;5082485;28;20052;-77
2023/10/21 03:16:24;;;;;;;29.52;12.45;;;;;;;;;;5080920;28;20107;-77
2023/10/21 03:18:49;;;;;;;23.10;11.95;;;;;;;;;;5103609;28;20488;-77
2023/10/21 03:21:15;;;;;;;27.08;12.35;;;;;;;;;;5077697;28;20020;-77
2023/10/21 03:23:40;;;;;;;17.52;11.43;;;;;;;;;;5091580;28;20039;-77
2023/10/21 03:26:06;;;;;;;20.75;11.13;;;;;;;;;;5097454;28;20024;-77
2023/10/21 03:28:32;;;;;;;14.88;10.73;;;;;;;;;;5095941;28;20032;-77
2023/10/21 03:30:58;;;;;;;22.75;11.23;;;;;;;;;;5082016;28;20093;-76
2023/10/21 03:33:24;;;;;;;23.13;11.35;;;;;;;;;;5080705;28;20031;-77
2023/10/21 03:35:50;;;;;;;23.77;12.38;;;;;;;;;;5078136;28;20397;-76
2023/10/21 03:38:16;;;;;;;22.63;11.07;;;;;;;;;;5094741;28;20016;-76
2023/10/21 03:40:41;;;;;;;25.30;11.35;;;;;;;;;;5094155;28;20481;-76
2023/10/21 03:43:07;;;;;;;27.25;11.60;;;;;;;;;;5079674;28;20024;-76
2023/10/21 03:45:32;;;;;;;17.23;10.20;;;;;;;;;;5081741;28;20112;-77
2023/10/21 03:47:58;;;;;;;45.20;12.63;;;;;;;;;;5103221;28;20024;-77
2023/10/21 03:50:23;;;;;;;39.50;12.15;;;;;;;;;;5074021;28;20110;-76
2023/10/21 03:52:48;;;;;;;18.52;10.05;;;;;;;;;;5091937;28;20034;-76
2023/10/21 03:55:13;;;;;;;63.55;12.98;;;;;;;;;;5090605;28;20028;-76
2023/10/21 03:57:39;;;;;;;31.25;11.05;;;;;;;;;;5094765;28;20031;-76
2023/10/21 04:00:05;;;;;;;62.97;11.88;;;;;;;;;;5098494;28;20027;-76
2023/10/21 04:02:37;;;;;;;16.67;9.32;;;;;;;;;;5095299;28;20024;-76
2023/10/21 04:05:02;;;;;;;33.25;12.57;;;;;;;;;;5079837;28;20034;-76
2023/10/21 04:07:27;;;;;;;27.10;9.98;;;;;;;;;;5084120;28;20043;-77
2023/10/21 04:09:52;;;;;;;21.77;9.57;;;;;;;;;;5099680;28;20035;-76
2023/10/21 04:12:18;;;;;;;21.95;10.77;;;;;;;;;;5096103;28;20039;-77
2023/10/21 04:14:43;;;;;;;22.05;9.40;;;;;;;;;;5102830;28;20102;-76
2023/10/21 04:17:08;;;;;;;54.40;11.75;;;;;;;;;;5095736;28;20015;-76
2023/10/21 04:19:34;;;;;;;30.67;9.60;;;;;;;;;;5090097;28;20523;-76
2023/10/21 04:21:59;;;;;;;57.60;10.45;;;;;;;;;;5105364;28;20059;-78
2023/10/21 04:24:24;;;;;;;28.63;8.50;;;;;;;;;;5104501;28;20110;-78
2023/10/21 04:26:50;;;;;;;17.75;8.40;;;;;;;;;;5109805;28;20053;-78
2023/10/21 04:29:16;;;;;;;44.42;11.77;;;;;;;;;;5107275;28;20122;-78
2023/10/21 04:31:41;;;;;;;23.70;8.82;;;;;;;;;;5103005;28;20492;-78
2023/10/21 04:34:06;;;;;;;35.55;9.52;;;;;;;;;;5101120;28;20080;-78
2023/10/21 04:36:31;;;;;;;25.02;9.05;;;;;;;;;;5100755;28;20021;-77
2023/10/21 04:38:56;;;;;;;20.98;8.73;;;;;;;;;;5106921;28;20031;-76
2023/10/21 04:41:22;;;;;;;17.60;8.75;;;;;;;;;;5101826;28;20081;-78
2023/10/21 04:43:47;;;;;;;13.10;9.02;;;;;;;;;;5103066;28;20028;-77
2023/10/21 04:46:12;;;;;;;24.20;10.25;;;;;;;;;;5098106;28;20065;-77
2023/10/21 04:48:37;;;;;;;13.55;9.23;;;;;;;;;;5083078;28;20519;-76
2023/10/21 04:51:03;;;;;;;11.43;8.40;;;;;;;;;;5103307;28;20027;-76
2023/10/21 04:53:28;;;;;;;19.27;9.85;;;;;;;;;;5076484;28;20106;-76
2023/10/21 04:55:53;;;;;;;17.98;9.88;;;;;;;;;;5104853;28;20063;-77
2023/10/21 04:58:18;;;;;;;15.20;9.02;;;;;;;;;;5101878;28;20052;-76
2023/10/21 05:00:44;;;;;;;10.73;8.85;;;;;;;;;;5101068;28;20110;-76
2023/10/21 05:03:09;;;;;;;9.98;7.78;;;;;;;;;;5079642;28;20052;-76
2023/10/21 05:05:34;;;;;;;14.50;9.75;;;;;;;;;;5080032;28;20029;-76
2023/10/21 05:08:01;;;;;;;16.20;9.60;;;;;;;;;;5083156;28;20031;-76
2023/10/21 05:10:26;;;;;;;15.85;9.45;;;;;;;;;;5101986;28;20046;-75
2023/10/21 05:12:51;;;;;;;12.98;9.68;;;;;;;;;;5098510;28;20477;-76
2023/10/21 05:15:17;;;;;;;14.85;9.35;;;;;;;;;;5078685;28;20020;-77
2023/10/21 05:17:42;;;;;;;11.00;9.02;;;;;;;;;;5096718;28;20016;-77
2023/10/21 05:20:08;;;;;;;11.13;9.05;;;;;;;;;;5099807;28;20495;-77
2023/10/21 05:22:33;;;;;;;13.30;9.93;;;;;;;;;;5101182;28;20028;-77
2023/10/21 05:24:58;;;;;;;13.98;10.07;;;;;;;;;;5104205;28;20092;-76
2023/10/21 05:27:23;;;;;;;12.68;9.20;;;;;;;;;;5096827;28;20043;-77
2023/10/21 05:29:49;;;;;;;11.93;9.38;;;;;;;;;;5094428;28;20090;-76
2023/10/21 05:32:17;;;;;;;11.98;8.98;;;;;;;;;;5076848;28;20082;-77
2023/10/21 05:34:42;;;;;;;13.20;10.25;;;;;;;;;;5099046;28;20085;-77
2023/10/21 05:37:07;;;;;;;12.32;9.35;;;;;;;;;;5102897;28;20430;-76
2023/10/21 05:39:32;;;;;;;11.82;9.63;;;;;;;;;;5097898;28;20032;-76
2023/10/21 05:41:58;;;;;;;11.00;8.40;;;;;;;;;;5076797;28;20032;-79
2023/10/21 05:44:23;;;;;;;13.90;11.45;;;;;;;;;;5097223;28;20039;-76
2023/10/21 05:46:48;;;;;;;14.27;11.18;;;;;;;;;;5079028;28;20077;-76
2023/10/21 05:49:13;;;;;;;12.95;10.25;;;;;;;;;;5099939;28;20034;-76
2023/10/21 05:51:39;;;;;;;14.40;11.07;;;;;;;;;;5086638;28;20400;-74
2023/10/21 05:54:04;;;;;;;12.93;10.43;;;;;;;;;;5104343;28;20490;-76
2023/10/21 05:56:29;;;;;;;16.58;10.50;;;;;;;;;;5095287;28;20395;-76
2023/10/21 05:58:54;;;;;;;12.50;10.07;;;;;;;;;;5094792;28;20022;-76
2023/10/21 06:01:20;;;;;;;14.07;10.80;;;;;;;;;;5074392;28;20409;-76
2023/10/21 06:03:45;;;;;;;12.43;8.68;;;;;;;;;;5075764;28;20043;-74
2023/10/21 06:06:10;;;;;;;14.35;10.23;;;;;;;;;;5100354;28;20080;-75
2023/10/21 06:08:36;;;;;;;17.67;12.02;;;;;;;;;;5089779;28;20545;-75
2023/10/21 06:11:01;;;;;;;15.77;11.65;;;;;;;;;;5095694;28;20042;-78
2023/10/21 06:13:26;;;;;;;14.73;11.48;;;;;;;;;;5098971;28;20039;-76
2023/10/21 06:15:52;;;;;;;14.63;10.38;;;;;;;;;;5081458;28;20035;-75
2023/10/21 06:18:17;;;;;;;14.10;10.90;;;;;;;;;;5073228;28;20024;-76
2023/10/21 06:20:48;;;;;;;15.05;11.10;;;;;;;;;;5073410;28;20057;-76
2023/10/21 06:23:14;;;;;;;16.05;12.25;;;;;;;;;;5085881;28;20028;-76
2023/10/21 06:25:39;;;;;;;16.95;11.05;;;;;;;;;;5077115;28;20108;-75
2023/10/21 06:28:04;;;;;;;17.05;12.15;;;;;;;;;;5095863;28;20574;-76
2023/10/21 06:30:30;;;;;;;15.45;10.70;;;;;;;;;;5097593;28;20549;-76
2023/10/21 06:32:55;;;;;;;16.63;11.30;;;;;;;;;;5102119;28;20031;-76
2023/10/21 06:35:20;;;;;;;17.33;11.82;;;;;;;;;;5100830;28;20035;-76
2023/10/21 06:37:45;;;;;;;16.73;11.88;;;;;;;;;;5091957;28;20028;-75
2023/10/21 06:40:11;;;;;;;15.40;10.88;;;;;;;;;;5092465;28;20102;-76
2023/10/21 06:42:36;;;;;;;14.65;10.50;;;;;;;;;;5095283;28;20028;-76
2023/10/21 06:45:02;;;;;;;14.95;11.23;;;;;;;;;;5096353;28;20076;-76
2023/10/21 06:47:28;;;;;;;14.38;10.80;;;;;;;;;;5095448;28;20032;-76
2023/10/21 06:49:53;;;;;;;15.45;11.15;;;;;;;;;;5082440;28;20115;-77
2023/10/21 06:52:20;;;;;;;14.23;10.88;;;;;;;;;;5094612;28;20034;-76
2023/10/21 06:54:45;;;;;;;15.02;10.88;;;;;;;;;;5093933;28;20028;-76
2023/10/21 06:57:10;;;;;;;16.70;11.68;;;;;;;;;;5097267;28;20031;-76
2023/10/21 06:59:35;;;;;;;12.82;9.38;;;;;;;;;;5092043;28;20096;-77
2023/10/21 07:02:01;;;;;;;12.98;8.88;;;;;;;;;;5090814;28;20035;-75
2023/10/21 07:04:26;;;;;;;10.07;8.57;;;;;;;;;;5088391;28;20397;-74
2023/10/21 07:06:51;;;;;;;11.25;8.18;;;;;;;;;;5082892;28;20096;-76
2023/10/21 07:09:16;;;;;;;13.50;10.20;;;;;;;;;;5089842;28;20043;-76
2023/10/21 07:11:42;;;;;;;14.75;9.68;;;;;;;;;;5090578;28;20495;-76
2023/10/21 07:14:07;;;;;;;14.68;9.35;;;;;;;;;;5092168;28;20039;-75
2023/10/21 07:16:33;;;;;;;11.57;8.48;;;;;;;;;;5098830;28;20043;-76
2023/10/21 07:18:58;;;;;;;11.95;8.38;;;;;;;;;;5087554;28;20511;-75
2023/10/21 07:21:24;;;;;;;11.77;8.52;;;;;;;;;;5089072;28;20031;-74
2023/10/21 07:23:49;;;;;;;11.05;8.18;;;;;;;;;;5096455;28;20023;-76
2023/10/21 07:26:14;;;;;;;14.20;9.82;;;;;;;;;;5091226;28;20040;-76
2023/10/21 07:28:40;;;;;;;11.18;9.50;;;;;;;;;;5098393;28;20102;-76
2023/10/21 07:31:05;;;;;;;13.63;10.55;;;;;;;;;;5101993;28;20077;-76
2023/10/21 07:33:30;;;;;;;11.93;8.88;;;;;;;;;;5093425;28;20396;-76
2023/10/21 07:35:55;;;;;;;9.85;7.07;;;;;;;;;;5086589;28;20032;-76
2023/10/21 07:38:21;;;;;;;7.43;5.53;;;;;;;;;;5092805;28;20028;-76
2023/10/21 07:40:46;;;;;;;5.38;3.55;;;;;;;;;;5088739;28;20024;-76
2023/10/21 07:43:14;;;;;;;5.95;2.13;;;;;;;;;;5092832;28;20024;-76
2023/10/21 07:45:42;;;;;;;2.95;1.70;;;;;;;;;;5085220;28;20463;-76
2023/10/21 07:48:07;;;;;;;2.50;0.60;;;;;;;;;;5089342;28;20027;-76
2023/10/21 07:50:32;;;;;;;1.55;0.52;;;;;;;;;;5086578;28;20040;-75
2023/10/21 07:52:58;;;;;;;1.02;0.50;;;;;;;;;;5098428;28;20110;-76
2023/10/21 07:55:23;;;;;;;1.35;0.43;;;;;;;;;;5102599;28;20040;-76
2023/10/21 07:57:48;;;;;;;2.88;0.40;;;;;;;;;;5104918;28;20158;-76
2023/10/21 08:00:14;;;;;;;1.48;0.38;;;;;;;;;;5101800;28;20580;-76
2023/10/21 08:02:42;;;;;;;1.02;0.40;;;;;;;;;;5096587;28;20040;-75
2023/10/21 08:05:08;;;;;;;0.93;0.38;;;;;;;;;;5090335;28;20028;-76
2023/10/21 08:07:33;;;;;;;0.88;0.30;;;;;;;;;;5093889;28;20062;-75
2023/10/21 08:09:58;;;;;;;1.27;0.30;;;;;;;;;;5100394;28;20028;-76
2023/10/21 08:12:24;;;;;;;1.77;0.40;;;;;;;;;;5106415;28;20024;-76
2023/10/21 08:14:49;;;;;;;1.60;0.40;;;;;;;;;;5099898;28;20036;-75
2023/10/21 08:17:15;;;;;;;0.52;0.20;;;;;;;;;;5102128;28;20024;-75
2023/10/21 08:19:40;;;;;;;1.95;0.90;;;;;;;;;;5101052;28;20576;-76
2023/10/21 08:22:05;;;;;;;1.92;0.90;;;;;;;;;;5104629;28;20026;-76
2023/10/21 08:24:31;;;;;;;1.73;0.80;;;;;;;;;;5082497;28;20035;-76
2023/10/21 08:26:57;;;;;;;1.13;0.50;;;;;;;;;;5101804;28;20058;-76
2023/10/21 08:29:22;;;;;;;1.50;0.40;;;;;;;;;;5091828;28;20091;-79
2023/10/21 08:31:47;;;;;;;2.83;0.50;;;;;;;;;;5099653;28;20024;-74
2023/10/21 08:34:13;;;;;;;1.50;0.40;;;;;;;;;;5075134;28;20081;-77
2023/10/21 08:36:38;;;;;;;2.17;0.30;;;;;;;;;;5093232;28;20028;-77
2023/10/21 08:39:07;;;;;;;1.02;0.40;;;;;;;;;;5104581;28;20024;-77
2023/10/21 08:41:34;;;;;;;2.42;0.35;;;;;;;;;;5079291;28;20028;-77
2023/10/21 08:44:00;;;;;;;0.73;0.30;;;;;;;;;;5100996;28;20027;-77
2023/10/21 08:46:26;;;;;;;0.45;0.30;;;;;;;;;;5100027;28;20032;-76
2023/10/21 08:48:51;;;;;;;1.17;0.22;;;;;;;;;;5101778;28;20035;-77
2023/10/21 08:51:21;;;;;;;4.05;0.50;;;;;;;;;;5105589;28;20518;-77
2023/10/21 08:53:47;;;;;;;1.25;0.30;;;;;;;;;;5105402;28;20024;-80
2023/10/21 08:56:13;;;;;;;0.77;0.30;;;;;;;;;;5096769;28;20023;-76
2023/10/21 08:58:38;;;;;;;1.98;0.25;;;;;;;;;;5095191;28;20032;-76
2023/10/21 09:01:05;;;;;;;1.58;0.40;;;;;;;;;;5097491;28;20399;-75
2023/10/21 09:03:30;;;;;;;1.45;0.40;;;;;;;;;;5098952;28;20447;-76
2023/10/21 09:06:14;;;;;;;0.90;0.20;;;;;;;;;;5104628;28;20043;-75
2023/10/21 09:08:43;;;;;;;1.48;0.35;;;;;;;;;;5082557;28;20637;-76
2023/10/21 09:11:10;;;;;;;0.22;0.20;;;;;;;;;;5089880;28;20119;-76
2023/10/21 09:13:36;;;;;;;0.40;0.20;;;;;;;;;;5095607;28;20119;-76
2023/10/21 09:16:04;;;;;;;0.50;0.20;;;;;;;;;;5102564;28;20024;-77
2023/10/21 09:18:30;;;;;;;0.95;0.40;;;;;;;;;;5100023;28;20032;-76
2023/10/21 09:20:55;;;;;;;2.13;0.60;;;;;;;;;;5102686;28;20043;-76
2023/10/21 09:23:20;;;;;;;1.65;0.22;;;;;;;;;;5100687;28;20391;-76
2023/10/21 09:25:49;;;;;;;1.40;0.45;;;;;;;;;;5085016;28;20491;-76
2023/10/21 09:28:21;;;;;;;1.90;0.17;;;;;;;;;;5099279;28;20081;-77
2023/10/21 09:30:59;;;;;;;1.40;0.43;;;;;;;;;;5096072;28;20036;-76
2023/10/21 09:33:25;;;;;;;0.60;0.20;;;;;;;;;;5097574;28;20039;-76
2023/10/21 09:36:07;;;;;;;2.08;0.20;;;;;;;;;;5105453;28;20479;-76
2023/10/21 09:38:36;;;;;;;0.63;0.13;;;;;;;;;;5090818;28;20387;-77
2023/10/21 09:41:08;;;;;;;1.98;0.47;;;;;;;;;;5097587;28;20090;-77
2023/10/21 09:43:36;;;;;;;1.10;0.38;;;;;;;;;;5079538;28;20499;-77
2023/10/21 09:46:05;;;;;;;1.67;0.20;;;;;;;;;;5102232;28;20063;-77
2023/10/21 09:48:32;;;;;;;0.50;0.20;;;;;;;;;;5105314;28;20560;-80
2023/10/21 09:50:58;;;;;;;0.52;0.22;;;;;;;;;;5100625;28;20032;-78
2023/10/21 09:53:24;;;;;;;0.45;0.22;;;;;;;;;;5096215;28;20073;-81
2023/10/21 09:55:50;;;;;;;2.05;0.50;;;;;;;;;;5099706;28;20029;-78
2023/10/21 09:58:16;;;;;;;2.63;0.95;;;;;;;;;;5098671;28;20036;-79
2023/10/21 10:00:42;;;;;;;2.38;0.43;;;;;;;;;;5099892;28;20464;-78
2023/10/21 10:03:07;;;;;;;0.80;0.40;;;;;;;;;;5105527;28;20028;-77
2023/10/21 10:05:33;;;;;;;0.98;0.30;;;;;;;;;;5096699;28;20036;-77
2023/10/21 10:07:59;;;;;;;1.35;0.20;;;;;;;;;;5095249;28;20028;-78
2023/10/21 10:10:27;;;;;;;0.93;0.30;;;;;;;;;;5097763;28;20028;-77
2023/10/21 10:12:58;;;;;;;1.98;0.20;;;;;;;;;;5100945;28;20027;-77
2023/10/21 10:15:30;;;;;;;0.45;0.20;;;;;;;;;;5097635;28;20511;-78
2023/10/21 10:17:56;;;;;;;0.65;0.22;;;;;;;;;;5093504;28;20032;-77
2023/10/21 10:20:24;;;;;;;2.35;0.28;;;;;;;;;;5087538;28;20099;-78
2023/10/21 10:23:10;;;;;;;1.65;0.20;;;;;;;;;;5095796;28;20476;-78
2023/10/21 10:25:45;;;;;;;2.10;0.20;;;;;;;;;;5090029;28;20043;-77
2023/10/21 10:28:17;;;;;;;2.47;0.25;;;;;;;;;;5100540;28;20028;-76
2023/10/21 10:30:45;;;;;;;0.98;0.20;;;;;;;;;;5092311;28;20078;-78
2023/10/21 10:33:18;;;;;;;1.13;0.30;;;;;;;;;;5076776;28;20032;-77
2023/10/21 10:35:53;;;;;;;1.77;0.30;;;;;;;;;;5076654;28;20384;-77
2023/10/21 10:38:20;;;;;;;2.38;0.30;;;;;;;;;;5098472;28;20084;-77
2023/10/21 10:40:46;;;;;;;0.75;0.10;;;;;;;;;;5102879;28;20061;-78
2023/10/21 10:43:11;;;;;;;0.90;0.20;;;;;;;;;;5102843;28;20024;-78
2023/10/21 10:45:37;;;;;;;1.42;0.47;;;;;;;;;;5102330;28;20081;-78
2023/10/21 10:48:03;;;;;;;1.70;0.30;;;;;;;;;;5096007;28;20024;-77
2023/10/21 10:50:32;;;;;;;3.75;0.65;;;;;;;;;;5097083;28;20028;-77
2023/10/21 10:52:57;;;;;;;0.55;0.20;;;;;;;;;;5101430;28;20088;-77
2023/10/21 10:55:23;;;;;;;2.88;0.63;;;;;;;;;;5099323;28;20032;-77
2023/10/21 10:57:49;;;;;;;1.00;0.28;;;;;;;;;;5106203;28;20015;-78
2023/10/21 11:00:20;;;;;;;0.55;0.10;;;;;;;;;;5108467;28;20023;-78
2023/10/21 11:02:46;;;;;;;1.60;0.30;;;;;;;;;;5095487;28;20077;-78
2023/10/21 11:05:20;;;;;;;1.90;0.20;;;;;;;;;;5078296;28;20024;-78
2023/10/21 11:07:46;;;;;;;0.60;0.30;;;;;;;;;;5098113;28;20020;-77
2023/10/21 11:10:14;;;;;;;1.73;0.30;;;;;;;;;;5102318;28;20033;-78
2023/10/21 11:12:40;;;;;;;0.75;0.20;;;;;;;;;;5105935;28;20390;-78
2023/10/21 11:15:06;;;;;;;1.40;0.30;;;;;;;;;;5094686;28;20027;-78
2023/10/21 11:17:32;;;;;;;1.63;0.60;;;;;;;;;;5094591;28;20553;-78
2023/10/21 11:19:58;;;;;;;0.90;0.30;;;;;;;;;;5098357;28;20027;-78
2023/10/21 11:22:28;;;;;;;0.47;0.20;;;;;;;;;;5098174;28;20031;-78
2023/10/21 11:24:53;;;;;;;0.40;0.30;;;;;;;;;;5092904;28;20499;-78
2023/10/21 11:27:18;;;;;;;0.77;0.25;;;;;;;;;;5111133;28;20028;-80
2023/10/21 11:29:44;;;;;;;0.98;0.20;;;;;;;;;;5092906;28;20488;-78
2023/10/21 11:32:13;;;;;;;0.60;0.22;;;;;;;;;;5079875;28;20424;-78
2023/10/21 11:34:38;;;;;;;0.55;0.20;;;;;;;;;;5096585;28;20040;-78
2023/10/21 11:37:04;;;;;;;0.43;0.20;;;;;;;;;;5102319;28;20035;-78
2023/10/21 11:39:31;;;;;;;2.63;0.57;;;;;;;;;;5103505;28;20028;-78
2023/10/21 11:41:56;;;;;;;2.38;0.28;;;;;;;;;;5087097;28;20020;-78
2023/10/21 11:44:25;;;;;;;0.30;0.13;;;;;;;;;;5097665;28;20467;-78
2023/10/21 11:46:50;;;;;;;0.68;0.10;;;;;;;;;;5097276;28;20270;-79
2023/10/21 11:49:15;;;;;;;1.23;0.25;;;;;;;;;;5095758;28;20017;-78
2023/10/21 11:51:41;;;;;;;1.67;0.47;;;;;;;;;;5098805;28;20051;-79
2023/10/21 11:54:09;;;;;;;1.85;0.20;;;;;;;;;;5097368;28;20085;-78
2023/10/21 12:08:11;;;;;;;2.30;0.40;;;;;;;;;;5088566;28;20570;-77
2023/10/21 12:29:44;;;;;;;0.95;0.20;;;;;;;;;;5093832;28;20056;-77
2023/10/21 12:32:35;;;;;;;0.65;0.20;;;;;;;;;;5095123;28;20056;-77
2023/10/21 12:37:32;;;;;;;0.75;0.32;;;;;;;;;;5092035;28;20503;-77
2023/10/21 12:39:58;;;;;;;0.77;0.30;;;;;;;;;;5093583;28;20024;-78
2023/10/21 12:42:27;;;;;;;1.80;0.35;;;;;;;;;;5098873;28;20043;-77
2023/10/21 12:45:00;;;;;;;0.30;0.20;;;;;;;;;;5099082;28;20035;-77
2023/10/21 12:47:27;;;;;;;0.77;0.20;;;;;;;;;;5103222;28;20041;-78
2023/10/21 12:49:55;;;;;;;1.23;0.30;;;;;;;;;;5095227;28;20036;-78
2023/10/21 12:52:21;;;;;;;1.45;0.57;;;;;;;;;;5098983;28;20041;-77
2023/10/21 12:54:48;;;;;;;1.40;0.20;;;;;;;;;;5099687;28;20032;-78
2023/10/21 12:57:14;;;;;;;2.53;0.40;;;;;;;;;;5097737;28;20397;-77
2023/10/21 12:59:39;;;;;;;1.20;0.20;;;;;;;;;;5100384;28;20065;-78
2023/10/21 13:02:08;;;;;;;0.63;0.25;;;;;;;;;;5097216;28;20113;-78
2023/10/21 13:04:34;;;;;;;0.47;0.20;;;;;;;;;;5104084;28;20114;-77
2023/10/21 13:07:00;;;;;;;3.92;0.25;;;;;;;;;;5095872;28;20432;-77
2023/10/21 13:09:28;;;;;;;1.40;0.17;;;;;;;;;;5098254;28;20059;-78
2023/10/21 13:11:53;;;;;;;2.00;0.32;;;;;;;;;;5098730;28;20034;-78
2023/10/21 13:14:19;;;;;;;1.80;0.52;;;;;;;;;;5102534;28;20107;-78
2023/10/21 13:16:45;;;;;;;1.67;0.30;;;;;;;;;;5101296;28;20032;-78
2023/10/21 13:19:10;;;;;;;2.28;0.52;;;;;;;;;;5099910;28;20099;-80
2023/10/21 13:21:36;;;;;;;2.50;0.40;;;;;;;;;;5080485;28;20028;-79
2023/10/21 13:24:04;;;;;;;1.13;0.20;;;;;;;;;;5103026;28;20084;-79
2023/10/21 13:26:30;;;;;;;0.95;0.20;;;;;;;;;;5100233;28;20488;-79
2023/10/21 13:28:55;;;;;;;0.98;0.20;;;;;;;;;;5099706;28;20115;-79
2023/10/21 13:31:20;;;;;;;0.30;0.15;;;;;;;;;;5103873;28;20435;-79
2023/10/21 13:33:45;;;;;;;1.08;0.20;;;;;;;;;;5101231;28;20106;-79
2023/10/21 13:36:11;;;;;;;0.60;0.20;;;;;;;;;;5098427;28;20020;-79
2023/10/21 13:38:36;;;;;;;0.30;0.17;;;;;;;;;;5098924;28;20277;-79
2023/10/21 13:41:04;;;;;;;0.80;0.30;;;;;;;;;;5101724;28;20020;-80
2023/10/21 13:43:30;;;;;;;0.52;0.20;;;;;;;;;;5105063;28;20326;-79
2023/10/21 13:45:55;;;;;;;1.73;0.22;;;;;;;;;;5103889;28;20020;-79
2023/10/21 13:48:20;;;;;;;0.40;0.10;;;;;;;;;;5096435;28;20060;-78
2023/10/21 13:50:49;;;;;;;0.60;0.20;;;;;;;;;;5093889;28;20034;-78
2023/10/21 13:53:17;;;;;;;0.57;0.10;;;;;;;;;;5098763;28;20278;-78
2023/10/21 13:55:42;;;;;;;1.50;0.20;;;;;;;;;;5101258;28;20028;-78
2023/10/21 13:58:08;;;;;;;0.85;0.25;;;;;;;;;;5100960;28;20024;-79
2023/10/21 14:00:34;;;;;;;1.65;0.13;;;;;;;;;;5101082;28;20038;-78
2023/10/21 14:03:08;;;;;;;0.25;0.13;;;;;;;;;;5094552;28;20039;-79
2023/10/21 14:05:33;;;;;;;1.35;0.35;;;;;;;;;;5097325;28;20039;-79
2023/10/21 14:07:59;;;;;;;0.63;0.28;;;;;;;;;;5087630;28;20767;-79
2023/10/21 14:10:24;;;;;;;0.73;0.20;;;;;;;;;;5099330;28;20031;-79
2023/10/21 14:12:50;;;;;;;0.85;0.40;;;;;;;;;;5097313;28;20274;-79
2023/10/21 14:15:18;;;;;;;0.70;0.30;;;;;;;;;;5099723;28;20024;-79
2023/10/21 14:17:44;;;;;;;0.77;0.25;;;;;;;;;;5095362;28;20016;-79
2023/10/21 14:20:12;;;;;;;1.55;0.20;;;;;;;;;;5099431;28;20484;-80
2023/10/21 14:22:38;;;;;;;0.95;0.30;;;;;;;;;;5098207;28;20059;-80
2023/10/21 14:25:07;;;;;;;3.22;0.65;;;;;;;;;;5103320;28;20031;-80
2023/10/21 14:27:32;;;;;;;5.22;0.40;;;;;;;;;;5101199;28;20061;-80
2023/10/21 14:30:03;;;;;;;1.10;0.40;;;;;;;;;;5080348;28;20032;-80
2023/10/21 14:32:28;;;;;;;0.70;0.20;;;;;;;;;;5099828;28;20115;-80
2023/10/21 14:34:53;;;;;;;0.98;0.22;;;;;;;;;;5083715;28;20058;-80
2023/10/21 14:37:18;;;;;;;1.20;0.30;;;;;;;;;;5103874;28;20016;-80
2023/10/21 14:39:43;;;;;;;0.50;0.23;;;;;;;;;;5101264;28;20730;-80
2023/10/21 14:42:09;;;;;;;0.67;0.20;;;;;;;;;;5085506;28;20285;-81
2023/10/21 14:44:34;;;;;;;0.63;0.30;;;;;;;;;;5099156;28;20269;-80
2023/10/21 14:46:59;;;;;;;0.70;0.20;;;;;;;;;;5098943;28;20293;-80
2023/10/21 14:49:24;;;;;;;0.50;0.20;;;;;;;;;;5099957;28;21186;-80
2023/10/21 14:51:49;;;;;;;1.20;0.50;;;;;;;;;;5088244;28;20825;-80
2023/10/21 14:54:15;;;;;;;6.45;0.50;;;;;;;;;;5087729;28;20054;-80
2023/10/21 14:56:42;;;;;;;2.25;0.38;;;;;;;;;;5095947;28;20035;-80
2023/10/21 14:59:07;;;;;;;4.28;1.00;;;;;;;;;;5068065;28;20418;-80